createdAt,value
2022-09-11T00:00:52.870Z,25.80
2022-09-11T00:01:55.611Z,23.92
2022-09-11T00:02:57.887Z,25.42
2022-09-11T00:04:00.490Z,22.75
2022-09-11T00:05:02.866Z,21.45
2022-09-11T00:06:07.535Z,23.25
2022-09-11T00:07:09.722Z,21.75
2022-09-11T00:08:14.641Z,22.23
2022-09-11T00:09:16.751Z,21.83
2022-09-11T00:10:19.054Z,22.25
2022-09-11T00:11:22.642Z,22.55
2022-09-11T00:12:24.779Z,21.98
2022-09-11T00:13:26.875Z,21.63
2022-09-11T00:14:29.649Z,22.00
2022-09-11T00:15:36.865Z,23.92
2022-09-11T00:16:43.061Z,19.50
2022-09-11T00:17:45.195Z,23.65
2022-09-11T00:18:48.894Z,23.17
2022-09-11T00:19:51.022Z,21.02
2022-09-11T00:20:55.140Z,23.65
2022-09-11T00:21:57.293Z,23.88
2022-09-11T00:23:04.814Z,23.23
2022-09-11T00:24:09.907Z,23.63
2022-09-11T00:25:12.038Z,19.98
2022-09-11T00:26:14.125Z,21.73
2022-09-11T00:27:16.318Z,22.00
2022-09-11T00:28:22.112Z,21.58
2022-09-11T00:29:24.283Z,22.77
2022-09-11T00:30:27.032Z,19.73
2022-09-11T00:31:30.142Z,21.63
2022-09-11T00:32:33.463Z,25.23
2022-09-11T00:33:36.204Z,24.65
2022-09-11T00:34:39.178Z,26.38
2022-09-11T00:35:41.990Z,25.60
2022-09-11T00:36:44.205Z,24.80
2022-09-11T00:37:46.357Z,23.52
2022-09-11T00:38:50.148Z,26.50
2022-09-11T00:39:52.737Z,25.25
2022-09-11T00:40:56.070Z,22.65
2022-09-11T00:41:58.515Z,22.58
2022-09-11T00:43:00.639Z,24.63
2022-09-11T00:44:28.311Z,24.20
2022-09-11T00:45:32.200Z,22.73
2022-09-11T00:46:42.199Z,22.75
2022-09-11T00:47:44.363Z,21.38
2022-09-11T00:48:49.967Z,21.20
2022-09-11T00:49:55.371Z,18.13
2022-09-11T00:51:01.171Z,19.17
2022-09-11T00:52:19.051Z,18.95
2022-09-11T00:53:23.546Z,22.77
2022-09-11T00:54:31.433Z,17.52
2022-09-11T00:55:37.139Z,17.52
2022-09-11T00:56:41.841Z,20.88
2022-09-11T00:57:49.669Z,17.52
2022-09-11T00:58:54.878Z,18.23
2022-09-11T00:59:59.476Z,17.10
2022-09-11T01:01:03.263Z,18.77
2022-09-11T01:02:08.458Z,16.73
2022-09-11T01:03:11.086Z,19.63
2022-09-11T01:04:13.609Z,17.67
2022-09-11T01:05:17.269Z,19.63
2022-09-11T01:06:21.064Z,18.65
2022-09-11T01:07:26.026Z,17.63
2022-09-11T01:08:28.450Z,18.13
2022-09-11T01:09:33.126Z,17.40
2022-09-11T01:10:59.531Z,18.15
2022-09-11T01:12:12.679Z,15.80
2022-09-11T01:13:46.766Z,16.75
2022-09-11T01:15:06.328Z,14.98
2022-09-11T01:16:28.796Z,15.77
2022-09-11T01:17:51.592Z,15.95
2022-09-11T01:19:08.961Z,17.85
2022-09-11T01:20:30.026Z,16.48
2022-09-11T01:23:21.488Z,16.45
2022-09-11T01:24:51.755Z,15.45
2022-09-11T01:26:15.191Z,13.98
2022-09-11T01:27:43.384Z,14.82
2022-09-11T01:29:23.914Z,16.52
2022-09-11T01:30:37.585Z,13.80
2022-09-11T01:31:56.582Z,14.57
2022-09-11T01:33:11.304Z,14.90
2022-09-11T01:34:22.950Z,14.60
2022-09-11T01:35:37.044Z,14.55
2022-09-11T01:36:46.521Z,17.17
2022-09-11T01:37:56.051Z,16.20
2022-09-11T01:39:02.229Z,18.92
2022-09-11T01:40:16.879Z,17.83
2022-09-11T01:41:29.079Z,19.67
2022-09-11T01:42:35.810Z,18.63
2022-09-11T01:43:43.261Z,19.48
2022-09-11T01:44:57.497Z,17.38
2022-09-11T01:46:03.726Z,19.70
2022-09-11T01:47:10.720Z,18.48
2022-09-11T01:48:18.025Z,19.50
2022-09-11T01:49:35.318Z,19.27
2022-09-11T01:50:42.904Z,17.60
2022-09-11T01:51:48.665Z,18.98
2022-09-11T01:52:58.091Z,18.63
2022-09-11T01:54:02.857Z,18.23
2022-09-11T01:55:13.348Z,19.17
2022-09-11T01:56:23.912Z,18.92
2022-09-11T01:57:35.829Z,19.17
2022-09-11T01:58:41.408Z,19.23
2022-09-11T01:59:49.633Z,16.55
2022-09-11T02:01:01.279Z,19.15
2022-09-11T02:02:09.709Z,16.05
2022-09-11T02:03:25.515Z,16.05
2022-09-11T02:04:38.950Z,15.88
2022-09-11T02:06:04.802Z,14.98
2022-09-11T02:07:18.406Z,15.23
2022-09-11T02:08:31.451Z,13.57
2022-09-11T02:09:46.883Z,15.63
2022-09-11T02:10:54.039Z,15.35
2022-09-11T02:11:58.194Z,15.43
2022-09-11T02:13:29.587Z,14.60
2022-09-11T02:14:42.032Z,14.98
2022-09-11T02:15:54.441Z,12.77
2022-09-11T02:17:24.629Z,13.70
2022-09-11T02:18:41.338Z,14.68
2022-09-11T02:19:43.855Z,14.60
2022-09-11T02:20:47.592Z,15.13
2022-09-11T02:21:53.416Z,14.88
2022-09-11T02:22:56.709Z,15.55
2022-09-11T02:24:00.487Z,15.00
2022-09-11T02:25:03.528Z,14.23
2022-09-11T02:26:09.599Z,13.20
2022-09-11T02:27:17.652Z,10.65
2022-09-11T02:28:19.975Z,11.77
2022-09-11T02:29:22.573Z,11.43
2022-09-11T02:30:24.876Z,12.65
2022-09-11T02:31:27.994Z,9.82
2022-09-11T02:32:32.579Z,13.07
2022-09-11T02:33:37.548Z,14.88
2022-09-11T02:34:42.850Z,13.63
2022-09-11T02:35:50.666Z,13.05
2022-09-11T02:36:59.105Z,14.70
2022-09-11T02:38:25.274Z,12.52
2022-09-11T02:39:55.351Z,12.57
2022-09-11T02:41:10.020Z,14.35
2022-09-11T02:42:12.867Z,15.52
2022-09-11T02:43:39.486Z,16.05
2022-09-11T02:45:11.723Z,15.77
2022-09-11T02:46:26.161Z,14.95
2022-09-11T02:47:46.897Z,14.55
2022-09-11T02:50:08.060Z,14.20
2022-09-11T02:51:23.802Z,13.93
2022-09-11T02:52:28.512Z,14.52
2022-09-11T02:53:53.267Z,14.98
2022-09-11T02:55:44.758Z,14.50
2022-09-11T02:57:04.160Z,13.07
2022-09-11T02:58:15.643Z,14.05
2022-09-11T02:59:25.130Z,13.13
2022-09-11T03:00:27.795Z,13.73
2022-09-11T03:01:31.735Z,13.13
2022-09-11T03:02:38.848Z,14.65
2022-09-11T03:03:45.955Z,13.20
2022-09-11T03:04:48.624Z,13.27
2022-09-11T03:05:50.991Z,12.57
2022-09-11T03:06:53.769Z,12.45
2022-09-11T03:07:55.995Z,12.65
2022-09-11T03:08:58.593Z,11.70
2022-09-11T03:10:00.738Z,11.68
2022-09-11T03:11:03.526Z,10.70
2022-09-11T03:12:06.910Z,12.45
2022-09-11T03:13:11.558Z,12.32
2022-09-11T03:14:14.416Z,11.38
2022-09-11T03:15:17.806Z,14.35
2022-09-11T03:16:22.229Z,12.75
2022-09-11T03:17:25.636Z,13.88
2022-09-11T03:18:27.749Z,11.80
2022-09-11T03:19:30.577Z,12.70
2022-09-11T03:20:33.943Z,11.05
2022-09-11T03:21:37.070Z,11.60
2022-09-11T03:22:39.742Z,10.88
2022-09-11T03:23:42.061Z,12.40
2022-09-11T03:24:45.091Z,11.32
2022-09-11T03:25:47.939Z,13.00
2022-09-11T03:26:50.258Z,11.80
2022-09-11T03:27:52.935Z,12.48
2022-09-11T03:28:55.595Z,12.10
2022-09-11T03:29:57.958Z,11.45
2022-09-11T03:31:00.828Z,11.82
2022-09-11T03:32:03.171Z,11.25
2022-09-11T03:33:05.372Z,13.05
2022-09-11T03:34:07.708Z,11.68
2022-09-11T03:35:09.965Z,10.95
2022-09-11T03:36:13.803Z,11.00
2022-09-11T03:37:27.327Z,11.70
2022-09-11T03:38:33.051Z,11.95
2022-09-11T03:39:35.575Z,10.90
2022-09-11T03:40:38.569Z,11.43
2022-09-11T03:41:40.794Z,10.27
2022-09-11T03:42:42.950Z,11.38
2022-09-11T03:43:45.086Z,11.80
2022-09-11T03:44:47.585Z,11.18
2022-09-11T03:45:50.380Z,12.15
2022-09-11T03:46:53.044Z,12.60
2022-09-11T03:47:55.458Z,11.88
2022-09-11T03:48:57.569Z,11.20
2022-09-11T03:49:59.693Z,12.32
2022-09-11T03:51:02.449Z,11.73
2022-09-11T03:52:05.057Z,12.55
2022-09-11T03:53:07.443Z,12.23
2022-09-11T03:54:10.625Z,12.30
2022-09-11T03:55:12.791Z,12.30
2022-09-11T03:56:15.282Z,12.35
2022-09-11T03:57:22.304Z,12.73
2022-09-11T03:58:24.514Z,10.73
2022-09-11T03:59:26.645Z,12.38
2022-09-11T04:00:29.326Z,13.88
2022-09-11T04:01:32.608Z,12.75
2022-09-11T04:02:34.795Z,12.32
2022-09-11T04:03:36.946Z,11.23
2022-09-11T04:04:39.161Z,11.05
2022-09-11T04:05:43.917Z,12.13
2022-09-11T04:06:46.066Z,12.25
2022-09-11T04:07:48.621Z,12.55
2022-09-11T04:08:51.197Z,12.25
2022-09-11T04:09:54.635Z,11.13
2022-09-11T04:11:02.771Z,12.65
2022-09-11T04:12:06.929Z,12.32
2022-09-11T04:13:09.093Z,12.35
2022-09-11T04:14:11.318Z,11.13
2022-09-11T04:15:15.034Z,11.38
2022-09-11T04:16:19.452Z,10.32
2022-09-11T04:17:26.057Z,10.68
2022-09-11T04:18:31.274Z,11.65
2022-09-11T04:19:34.255Z,11.55
2022-09-11T04:20:39.401Z,10.15
2022-09-11T04:21:42.264Z,9.70
2022-09-11T04:22:44.624Z,9.65
2022-09-11T04:23:55.907Z,8.82
2022-09-11T04:25:00.331Z,9.45
2022-09-11T04:26:12.281Z,9.85
2022-09-11T04:28:16.553Z,9.65
2022-09-11T04:29:19.484Z,9.25
2022-09-11T04:30:22.329Z,9.50
2022-09-11T04:31:27.622Z,8.93
2022-09-11T04:32:29.997Z,10.25
2022-09-11T04:33:32.214Z,9.57
2022-09-11T04:34:34.330Z,9.98
2022-09-11T04:35:41.040Z,10.52
2022-09-11T04:36:43.732Z,10.32
2022-09-11T04:37:49.598Z,10.13
2022-09-11T04:38:55.859Z,11.05
2022-09-11T04:39:58.084Z,11.13
2022-09-11T04:41:01.809Z,10.80
2022-09-11T04:42:04.394Z,10.05
2022-09-11T04:43:08.117Z,10.32
2022-09-11T04:44:10.411Z,10.68
2022-09-11T04:45:17.179Z,10.52
2022-09-11T04:46:19.651Z,9.90
2022-09-11T04:47:21.802Z,11.27
2022-09-11T04:48:23.985Z,10.13
2022-09-11T04:49:26.077Z,9.98
2022-09-11T04:50:29.182Z,10.05
2022-09-11T04:51:50.671Z,10.88
2022-09-11T04:52:55.675Z,9.93
2022-09-11T04:54:00.679Z,10.25
2022-09-11T04:55:08.407Z,11.02
2022-09-11T04:56:15.073Z,10.82
2022-09-11T04:57:21.119Z,10.05
2022-09-11T04:58:23.308Z,10.35
2022-09-11T04:59:26.543Z,11.30
2022-09-11T05:00:35.217Z,10.35
2022-09-11T05:01:37.767Z,10.18
2022-09-11T05:03:09.501Z,10.77
2022-09-11T05:04:16.124Z,10.68
2022-09-11T05:05:18.325Z,11.07
2022-09-11T05:06:20.498Z,9.95
2022-09-11T05:07:24.313Z,9.93
2022-09-11T05:08:28.270Z,9.63
2022-09-11T05:09:30.487Z,10.18
2022-09-11T05:10:38.159Z,11.40
2022-09-11T05:11:41.730Z,9.82
2022-09-11T05:12:45.218Z,9.82
2022-09-11T05:13:47.941Z,11.02
2022-09-11T05:14:51.208Z,12.15
2022-09-11T05:15:53.999Z,10.23
2022-09-11T05:16:56.240Z,12.00
2022-09-11T05:18:00.727Z,10.93
2022-09-11T05:19:06.050Z,10.40
2022-09-11T05:20:11.990Z,11.20
2022-09-11T05:21:18.065Z,9.95
2022-09-11T05:22:21.390Z,10.43
2022-09-11T05:23:29.848Z,11.18
2022-09-11T05:24:32.290Z,11.18
2022-09-11T05:25:36.870Z,11.52
2022-09-11T05:26:39.006Z,11.85
2022-09-11T05:27:42.589Z,11.57
2022-09-11T05:28:45.243Z,11.07
2022-09-11T05:29:47.443Z,11.15
2022-09-11T05:30:50.777Z,12.25
2022-09-11T05:31:55.003Z,11.85
2022-09-11T05:32:57.401Z,12.80
2022-09-11T05:34:00.540Z,11.60
2022-09-11T05:35:02.886Z,10.57
2022-09-11T05:36:06.594Z,11.30
2022-09-11T05:37:09.033Z,11.60
2022-09-11T05:38:17.141Z,10.85
2022-09-11T05:39:19.255Z,10.75
2022-09-11T05:40:22.353Z,11.02
2022-09-11T05:41:25.025Z,11.68
2022-09-11T05:42:28.638Z,11.52
2022-09-11T05:43:32.847Z,11.27
2022-09-11T05:44:37.023Z,10.75
2022-09-11T05:45:39.219Z,11.57
2022-09-11T05:46:41.421Z,12.25
2022-09-11T05:47:43.630Z,11.23
2022-09-11T05:48:45.902Z,10.63
2022-09-11T05:49:48.082Z,11.07
2022-09-11T05:50:54.757Z,11.45
2022-09-11T05:51:57.450Z,11.82
2022-09-11T05:53:01.108Z,11.10
2022-09-11T05:54:04.376Z,11.57
2022-09-11T05:55:07.817Z,11.52
2022-09-11T05:56:14.039Z,10.98
2022-09-11T05:57:16.500Z,12.25
2022-09-11T05:58:19.141Z,11.00
2022-09-11T05:59:22.250Z,12.27
2022-09-11T06:00:25.507Z,13.52
2022-09-11T06:01:28.875Z,13.07
2022-09-11T06:02:40.704Z,12.93
2022-09-11T06:03:43.714Z,12.60
2022-09-11T06:04:47.111Z,13.05
2022-09-11T06:05:49.263Z,13.13
2022-09-11T06:06:52.022Z,13.18
2022-09-11T06:07:54.685Z,12.52
2022-09-11T06:08:56.810Z,12.48
2022-09-11T06:10:02.988Z,12.20
2022-09-11T06:11:08.231Z,11.02
2022-09-11T06:12:12.389Z,12.90
2022-09-11T06:13:17.834Z,12.98
2022-09-11T06:14:22.019Z,12.23
2022-09-11T06:15:45.536Z,10.60
2022-09-11T06:16:48.871Z,10.38
2022-09-11T06:17:51.665Z,12.65
2022-09-11T06:18:54.320Z,11.32
2022-09-11T06:19:56.836Z,11.77
2022-09-11T06:21:01.381Z,11.85
2022-09-11T06:22:08.629Z,10.52
2022-09-11T06:23:15.319Z,11.25
2022-09-11T06:24:18.591Z,10.05
2022-09-11T06:25:20.806Z,11.60
2022-09-11T06:26:25.490Z,10.32
2022-09-11T06:27:28.376Z,11.90
2022-09-11T06:28:30.667Z,12.13
2022-09-11T06:29:34.243Z,11.43
2022-09-11T06:30:37.388Z,10.70
2022-09-11T06:31:39.505Z,11.27
2022-09-11T06:32:41.646Z,10.50
2022-09-11T06:33:45.468Z,10.63
2022-09-11T06:34:47.616Z,12.02
2022-09-11T06:35:58.702Z,12.57
2022-09-11T06:37:01.051Z,13.45
2022-09-11T06:38:03.211Z,11.40
2022-09-11T06:39:05.617Z,11.68
2022-09-11T06:40:09.628Z,11.27
2022-09-11T06:41:14.869Z,12.43
2022-09-11T06:42:18.349Z,11.30
2022-09-11T06:43:21.618Z,11.40
2022-09-11T06:44:24.227Z,11.10
2022-09-11T06:45:30.241Z,11.45
2022-09-11T06:46:32.442Z,11.13
2022-09-11T06:47:35.937Z,11.00
2022-09-11T06:48:43.904Z,11.43
2022-09-11T06:49:46.272Z,9.63
2022-09-11T06:51:17.462Z,9.88
2022-09-11T06:52:19.574Z,10.63
2022-09-11T06:53:32.308Z,10.02
2022-09-11T06:54:40.757Z,10.35
2022-09-11T06:55:48.165Z,10.60
2022-09-11T06:56:51.893Z,11.05
2022-09-11T06:57:53.986Z,9.82
2022-09-11T06:59:00.753Z,9.23
2022-09-11T07:00:04.092Z,9.57
2022-09-11T07:01:14.071Z,9.18
2022-09-11T07:02:17.655Z,9.25
2022-09-11T07:03:21.613Z,9.18
2022-09-11T07:04:25.913Z,9.70
2022-09-11T07:05:29.373Z,9.63
2022-09-11T07:06:32.230Z,9.80
2022-09-11T07:07:36.386Z,9.55
2022-09-11T07:08:39.476Z,9.60
2022-09-11T07:09:41.694Z,9.48
2022-09-11T07:10:43.874Z,8.20
2022-09-11T07:11:46.852Z,9.48
2022-09-11T07:12:49.304Z,10.13
2022-09-11T07:13:51.445Z,9.30
2022-09-11T07:14:53.911Z,8.90
2022-09-11T07:16:02.974Z,11.00
2022-09-11T07:17:07.998Z,10.65
2022-09-11T07:18:10.319Z,11.10
2022-09-11T07:19:12.664Z,10.23
2022-09-11T07:20:17.627Z,9.13
2022-09-11T07:21:22.923Z,9.35
2022-09-11T07:22:29.380Z,9.73
2022-09-11T07:23:31.537Z,9.48
2022-09-11T07:24:34.251Z,10.02
2022-09-11T07:25:40.683Z,8.75
2022-09-11T07:26:43.129Z,9.50
2022-09-11T07:27:56.930Z,9.00
2022-09-11T07:28:59.765Z,9.93
2022-09-11T07:30:03.194Z,9.10
2022-09-11T07:31:20.702Z,8.90
2022-09-11T07:32:23.531Z,8.48
2022-09-11T07:33:27.577Z,8.15
2022-09-11T07:34:32.940Z,8.73
2022-09-11T07:35:39.723Z,8.15
2022-09-11T07:36:41.871Z,8.20
2022-09-11T07:37:48.911Z,8.38
2022-09-11T07:38:54.733Z,8.68
2022-09-11T07:39:58.212Z,9.60
2022-09-11T07:41:03.243Z,9.45
2022-09-11T07:42:07.319Z,10.32
2022-09-11T07:43:10.271Z,9.60
2022-09-11T07:44:12.532Z,9.25
2022-09-11T07:45:18.735Z,8.95
2022-09-11T07:46:27.383Z,9.45
2022-09-11T07:47:31.141Z,8.88
2022-09-11T07:48:34.029Z,10.02
2022-09-11T07:49:36.167Z,9.25
2022-09-11T07:50:39.411Z,8.98
2022-09-11T07:51:41.693Z,8.98
2022-09-11T07:52:45.003Z,10.25
2022-09-11T07:53:50.987Z,10.80
2022-09-11T07:54:53.898Z,10.52
2022-09-11T07:56:11.702Z,11.23
2022-09-11T07:57:14.376Z,10.75
2022-09-11T07:58:17.921Z,10.60
2022-09-11T07:59:20.164Z,12.70
2022-09-11T08:00:24.042Z,11.43
2022-09-11T08:01:37.435Z,11.48
2022-09-11T08:02:42.868Z,11.57
2022-09-11T08:03:45.867Z,10.70
2022-09-11T08:04:48.190Z,11.52
2022-09-11T08:05:50.338Z,10.38
2022-09-11T08:06:52.662Z,9.95
2022-09-11T08:08:02.991Z,11.57
2022-09-11T08:09:12.387Z,11.07
2022-09-11T08:11:31.816Z,11.90
2022-09-11T08:12:34.666Z,13.80
2022-09-11T08:13:37.496Z,11.60
2022-09-11T08:14:39.944Z,12.80
2022-09-11T08:15:56.840Z,13.25
2022-09-11T08:16:59.014Z,12.05
2022-09-11T08:18:03.667Z,11.93
2022-09-11T08:19:07.895Z,12.85
2022-09-11T08:20:10.110Z,12.88
2022-09-11T08:21:13.332Z,12.90
2022-09-11T08:22:15.797Z,11.23
2022-09-11T08:23:22.066Z,12.40
2022-09-11T08:24:24.896Z,12.57
2022-09-11T08:25:31.214Z,12.25
2022-09-11T08:26:37.055Z,12.63
2022-09-11T08:27:39.274Z,13.43
2022-09-11T08:28:45.706Z,13.10
2022-09-11T08:29:47.895Z,12.95
2022-09-11T08:30:50.078Z,12.93
2022-09-11T08:31:52.223Z,13.05
2022-09-11T08:32:54.487Z,12.52
2022-09-11T08:33:56.989Z,13.80
2022-09-11T08:34:59.317Z,12.98
2022-09-11T08:36:05.189Z,13.65
2022-09-11T08:37:08.417Z,14.40
2022-09-11T08:38:11.425Z,14.45
2022-09-11T08:39:13.600Z,12.02
2022-09-11T08:40:22.361Z,12.98
2022-09-11T08:41:36.514Z,13.05
2022-09-11T08:42:44.263Z,13.80
2022-09-11T08:43:53.494Z,13.32
2022-09-11T08:45:00.165Z,13.20
2022-09-11T08:46:12.824Z,12.88
2022-09-11T08:47:22.390Z,13.68
2022-09-11T08:49:42.960Z,13.02
2022-09-11T08:50:46.259Z,12.20
2022-09-11T08:51:52.905Z,12.15
2022-09-11T08:52:56.524Z,11.93
2022-09-11T08:54:02.428Z,12.52
2022-09-11T08:55:06.441Z,14.35
2022-09-11T08:56:18.012Z,13.18
2022-09-11T08:58:19.219Z,11.75
2022-09-11T08:59:33.607Z,11.65
2022-09-11T09:00:44.049Z,11.60
2022-09-11T09:01:52.506Z,12.27
2022-09-11T09:03:09.868Z,13.63
2022-09-11T09:04:21.770Z,12.73
2022-09-11T09:05:55.972Z,12.40
2022-09-11T09:07:04.222Z,10.52
2022-09-11T09:08:09.494Z,12.40
2022-09-11T09:09:34.343Z,10.68
2022-09-11T09:11:04.376Z,8.70
2022-09-11T09:14:13.861Z,9.73
2022-09-11T09:15:17.086Z,9.90
2022-09-11T09:16:35.028Z,8.38
2022-09-11T09:18:10.252Z,9.05
2022-09-11T09:19:23.591Z,9.18
2022-09-11T09:20:34.214Z,8.73
2022-09-11T09:21:43.732Z,9.30
2022-09-11T09:23:01.796Z,8.15
2022-09-11T09:24:19.217Z,8.32
2022-09-11T09:25:24.901Z,8.23
2022-09-11T09:26:39.918Z,8.18
2022-09-11T09:27:49.210Z,8.88
2022-09-11T09:28:57.091Z,9.40
2022-09-11T09:30:06.230Z,8.35
2022-09-11T09:31:11.824Z,10.00
2022-09-11T09:32:24.144Z,11.27
2022-09-11T09:33:48.344Z,11.02
2022-09-11T09:34:55.285Z,11.07
2022-09-11T09:36:14.674Z,11.75
2022-09-11T09:37:21.676Z,12.65
2022-09-11T09:38:29.297Z,10.82
2022-09-11T09:39:32.014Z,10.82
2022-09-11T09:40:36.331Z,12.07
2022-09-11T09:41:57.645Z,10.80
2022-09-11T09:43:20.600Z,11.85
2022-09-11T09:44:52.171Z,11.80
2022-09-11T09:46:12.040Z,11.63
2022-09-11T09:47:15.287Z,11.45
2022-09-11T09:48:17.987Z,11.30
2022-09-11T09:49:28.662Z,10.65
2022-09-11T09:51:35.370Z,11.85
2022-09-11T09:52:37.503Z,11.80
2022-09-11T09:53:48.954Z,11.75
2022-09-11T09:55:01.328Z,12.00
2022-09-11T09:56:05.281Z,9.88
2022-09-11T09:57:10.490Z,10.57
2022-09-11T09:58:12.639Z,8.68
2022-09-11T09:59:20.301Z,9.85
2022-09-11T10:00:22.390Z,10.25
2022-09-11T10:01:46.536Z,9.02
2022-09-11T10:02:55.440Z,8.63
2022-09-11T10:04:11.526Z,9.35
2022-09-11T10:05:43.918Z,6.93
2022-09-11T10:06:49.518Z,9.07
2022-09-11T10:07:57.720Z,7.15
2022-09-11T10:09:03.241Z,7.75
2022-09-11T10:10:06.201Z,5.05
2022-09-11T10:11:12.217Z,5.53
2022-09-11T10:12:21.463Z,5.55
2022-09-11T10:13:28.243Z,4.45
2022-09-11T10:14:51.982Z,6.00
2022-09-11T10:15:59.749Z,5.75
2022-09-11T10:17:02.858Z,4.65
2022-09-11T10:18:33.187Z,5.03
2022-09-11T10:19:41.687Z,5.40
2022-09-11T10:20:44.488Z,5.20
2022-09-11T10:21:46.597Z,4.90
2022-09-11T10:22:50.161Z,4.35
2022-09-11T10:24:00.801Z,3.30
2022-09-11T10:25:12.887Z,4.10
2022-09-11T10:26:21.006Z,3.95
2022-09-11T10:27:27.220Z,3.35
2022-09-11T10:28:33.474Z,4.00
2022-09-11T10:29:35.759Z,2.95
2022-09-11T10:30:41.491Z,2.88
2022-09-11T10:32:02.717Z,3.78
2022-09-11T10:33:40.085Z,3.70
2022-09-11T10:34:43.661Z,3.30
2022-09-11T10:35:55.139Z,3.03
2022-09-11T10:37:07.522Z,2.50
2022-09-11T10:38:18.055Z,2.78
2022-09-11T10:39:22.202Z,2.55
2022-09-11T10:40:24.418Z,2.45
2022-09-11T10:41:28.336Z,2.35
2022-09-11T10:42:32.937Z,1.85
2022-09-11T10:43:43.496Z,2.10
2022-09-11T10:44:47.674Z,2.03
2022-09-11T10:46:20.785Z,2.15
2022-09-11T10:47:32.677Z,1.95
2022-09-11T10:48:35.643Z,1.60
2022-09-11T10:49:37.902Z,1.83
2022-09-11T10:50:40.033Z,1.52
2022-09-11T10:51:57.022Z,1.65
2022-09-11T10:53:20.221Z,1.48
2022-09-11T10:54:38.397Z,1.67
2022-09-11T10:55:45.971Z,1.70
2022-09-11T10:57:01.640Z,1.88
2022-09-11T10:58:14.334Z,1.58
2022-09-11T10:59:22.836Z,1.38
2022-09-11T11:00:27.916Z,1.55
2022-09-11T11:01:30.126Z,1.67
2022-09-11T11:02:39.115Z,1.88
2022-09-11T11:03:41.576Z,1.50
2022-09-11T11:04:43.790Z,2.28
2022-09-11T11:06:19.994Z,1.58
2022-09-11T11:08:00.678Z,1.42
2022-09-11T11:09:12.448Z,1.35
2022-09-11T11:10:35.694Z,1.40
2022-09-11T11:11:52.888Z,1.00
2022-09-11T11:13:30.797Z,0.90
2022-09-11T11:15:04.294Z,0.90
2022-09-11T11:16:39.558Z,1.02
2022-09-11T11:18:24.176Z,0.90
2022-09-11T11:19:41.253Z,0.90
2022-09-11T11:21:00.038Z,1.27
2022-09-11T11:22:05.233Z,1.13
2022-09-11T11:23:48.635Z,1.10
2022-09-11T11:25:00.587Z,0.80
2022-09-11T11:26:24.032Z,0.90
2022-09-11T11:27:43.169Z,0.85
2022-09-11T11:29:03.382Z,0.98
2022-09-11T11:30:23.982Z,1.00
2022-09-11T11:33:10.172Z,1.00
2022-09-11T11:34:42.773Z,0.88
2022-09-11T11:36:07.145Z,1.17
2022-09-11T11:37:18.031Z,1.10
2022-09-11T11:38:34.559Z,1.10
2022-09-11T11:40:00.314Z,0.98
2022-09-11T11:41:21.292Z,1.00
2022-09-11T11:42:55.409Z,1.20
2022-09-11T11:44:02.018Z,0.85
2022-09-11T11:45:07.348Z,1.00
2022-09-11T11:46:18.280Z,1.00
2022-09-11T11:47:25.330Z,0.90
2022-09-11T11:48:39.510Z,1.10
2022-09-11T11:50:00.192Z,1.02
2022-09-11T11:52:30.907Z,0.90
2022-09-11T11:53:38.969Z,0.50
2022-09-11T11:54:49.544Z,1.17
2022-09-11T11:56:18.893Z,1.00
2022-09-11T11:57:25.357Z,0.50
2022-09-11T11:58:47.279Z,0.50
2022-09-11T12:00:03.590Z,0.70
2022-09-11T12:01:28.722Z,0.45
2022-09-11T12:02:40.228Z,0.80
2022-09-11T12:03:52.963Z,0.57
2022-09-11T12:05:30.332Z,0.80
2022-09-11T12:06:32.464Z,0.60
2022-09-11T12:07:37.297Z,0.70
2022-09-11T12:08:45.647Z,0.68
2022-09-11T12:09:49.694Z,0.50
2022-09-11T12:11:04.545Z,0.70
2022-09-11T12:12:07.978Z,0.75
2022-09-11T12:13:15.753Z,0.65
2022-09-11T12:14:32.152Z,0.60
2022-09-11T12:15:36.750Z,1.08
2022-09-11T12:16:39.083Z,0.52
2022-09-11T12:17:41.634Z,0.60
2022-09-11T12:19:04.088Z,0.50
2022-09-11T12:20:12.190Z,1.67
2022-09-11T12:21:23.202Z,0.80
2022-09-11T12:22:38.940Z,0.90
2022-09-11T12:23:50.213Z,0.55
2022-09-11T12:24:59.043Z,0.50
2022-09-11T12:26:04.156Z,0.50
2022-09-11T12:27:34.551Z,0.40
2022-09-11T12:28:37.909Z,0.57
2022-09-11T12:29:40.000Z,0.55
2022-09-11T12:30:56.244Z,0.60
2022-09-11T12:32:01.178Z,0.55
2022-09-11T12:33:27.628Z,0.55
2022-09-11T12:34:38.850Z,0.60
2022-09-11T12:35:43.883Z,0.60
2022-09-11T12:37:07.344Z,0.60
2022-09-11T12:38:09.486Z,0.50
2022-09-11T12:39:34.711Z,0.80
2022-09-11T12:41:01.989Z,0.38
2022-09-11T12:42:33.654Z,0.90
2022-09-11T12:43:35.763Z,0.63
2022-09-11T12:44:46.847Z,0.45
2022-09-11T12:45:49.118Z,0.57
2022-09-11T12:46:54.070Z,0.40
2022-09-11T12:48:06.528Z,0.73
2022-09-11T12:49:22.022Z,0.40
2022-09-11T12:50:27.658Z,0.50
2022-09-11T12:51:36.180Z,0.57
2022-09-11T12:52:39.442Z,0.45
2022-09-11T12:53:47.062Z,0.50
2022-09-11T12:54:51.090Z,0.40
2022-09-11T12:56:03.143Z,0.63
2022-09-11T12:57:16.101Z,0.57
2022-09-11T12:58:21.015Z,0.57
2022-09-11T12:59:31.895Z,0.50
2022-09-11T13:00:43.741Z,0.40
2022-09-11T13:01:46.312Z,0.40
2022-09-11T13:02:55.589Z,0.40
2022-09-11T13:04:15.218Z,0.50
2022-09-11T13:05:24.909Z,0.43
2022-09-11T13:06:51.932Z,0.30
2022-09-11T13:07:57.975Z,0.40
2022-09-11T13:09:02.562Z,0.50
2022-09-11T13:10:30.405Z,0.43
2022-09-11T13:11:34.435Z,0.40
2022-09-11T13:12:52.270Z,0.40
2022-09-11T13:13:56.114Z,0.30
2022-09-11T13:15:01.263Z,0.40
2022-09-11T13:16:24.209Z,0.47
2022-09-11T13:17:30.471Z,0.30
2022-09-11T13:18:34.938Z,0.20
2022-09-11T13:19:38.330Z,0.38
2022-09-11T13:20:40.883Z,0.20
2022-09-11T13:21:45.780Z,0.40
2022-09-11T13:22:49.116Z,0.30
2022-09-11T13:23:52.252Z,0.47
2022-09-11T13:25:17.703Z,0.45
2022-09-11T13:26:25.093Z,0.35
2022-09-11T13:27:28.189Z,0.43
2022-09-11T13:28:31.720Z,0.50
2022-09-11T13:29:37.827Z,0.60
2022-09-11T13:30:52.942Z,0.45
2022-09-11T13:31:57.638Z,0.50
2022-09-11T13:33:08.531Z,0.57
2022-09-11T13:34:16.955Z,0.60
2022-09-11T13:35:27.582Z,0.63
2022-09-11T13:37:40.877Z,0.80
2022-09-11T13:38:44.280Z,0.47
2022-09-11T13:39:47.061Z,0.52
2022-09-11T13:41:06.937Z,0.57
2022-09-11T13:42:16.198Z,0.60
2022-09-11T13:43:27.385Z,0.55
2022-09-11T13:44:29.448Z,0.77
2022-09-11T13:45:31.766Z,0.57
2022-09-11T13:46:34.816Z,0.30
2022-09-11T13:47:40.943Z,0.30
2022-09-11T13:48:44.932Z,0.60
2022-09-11T13:49:49.052Z,0.40
2022-09-11T13:50:52.133Z,0.43
2022-09-11T13:51:55.989Z,0.60
2022-09-11T13:52:58.372Z,0.38
2022-09-11T13:54:23.611Z,0.43
2022-09-11T13:55:29.882Z,0.52
2022-09-11T13:56:56.172Z,0.50
2022-09-11T13:58:01.063Z,0.70
2022-09-11T13:59:39.768Z,0.30
2022-09-11T14:00:45.118Z,0.60
2022-09-11T14:02:00.831Z,0.50
2022-09-11T14:03:06.754Z,0.63
2022-09-11T14:04:11.417Z,0.70
2022-09-11T14:05:26.360Z,0.68
2022-09-11T14:06:28.793Z,0.70
2022-09-11T14:07:34.007Z,0.80
2022-09-11T14:08:40.345Z,0.40
2022-09-11T14:09:47.320Z,0.73
2022-09-11T14:10:53.480Z,0.47
2022-09-11T14:12:02.750Z,0.70
2022-09-11T14:13:23.122Z,0.68
2022-09-11T14:14:28.827Z,0.70
2022-09-11T14:15:37.996Z,0.70
2022-09-11T14:16:52.987Z,1.00
2022-09-11T14:17:56.132Z,0.65
2022-09-11T14:19:06.298Z,0.80
2022-09-11T14:20:17.073Z,0.90
2022-09-11T14:21:24.691Z,0.80
2022-09-11T14:22:34.221Z,0.65
2022-09-11T14:23:43.403Z,0.70
2022-09-11T14:24:56.031Z,0.80
2022-09-11T14:26:16.952Z,0.60
2022-09-11T14:27:32.789Z,0.45
2022-09-11T14:28:43.185Z,0.43
2022-09-11T14:29:53.085Z,0.57
2022-09-11T14:31:07.747Z,0.70
2022-09-11T14:32:34.195Z,0.70
2022-09-11T14:33:36.581Z,0.68
2022-09-11T14:34:38.690Z,0.80
2022-09-11T14:35:41.582Z,0.65
2022-09-11T14:36:47.217Z,0.80
2022-09-11T14:37:49.752Z,0.55
2022-09-11T14:38:53.349Z,0.65
2022-09-11T14:39:59.094Z,0.60
2022-09-11T14:41:04.041Z,0.50
2022-09-11T14:42:08.915Z,0.60
2022-09-11T14:43:11.873Z,0.60
2022-09-11T14:44:17.454Z,0.60
2022-09-11T14:45:23.837Z,0.50
2022-09-11T14:46:26.040Z,0.50
2022-09-11T14:47:29.245Z,0.57
2022-09-11T14:48:34.310Z,0.60
2022-09-11T14:49:36.436Z,0.55
2022-09-11T14:50:38.896Z,0.52
2022-09-11T14:51:43.130Z,0.52
2022-09-11T14:52:46.400Z,0.50
2022-09-11T14:53:48.534Z,0.60
2022-09-11T14:54:50.674Z,0.40
2022-09-11T14:55:52.786Z,0.40
2022-09-11T14:56:55.255Z,0.50
2022-09-11T14:57:57.396Z,0.65
2022-09-11T14:58:59.503Z,0.50
2022-09-11T15:00:01.921Z,0.50
2022-09-11T15:01:04.111Z,0.60
2022-09-11T15:02:15.270Z,0.50
2022-09-11T15:03:18.186Z,0.80
2022-09-11T15:04:21.784Z,0.60